Terminal Aerodrome Forecast
Issued by NWS Mt. Holly, NJ

Home | Current Version | Previous Version | Text Only | Print | Product List | Glossary On
Versions: 1 2 3 4 5 6 7 8 9 10 11 12 13 14 15 16 17 18 19
372
FTUS41 KPHI 231207 AAA
TAFILG
TAF AMD
KILG 231207Z 2312/2412 VRB03KT 1/2SM FG BKN002 OVC005
     FM231300 11004KT P6SM SCT002 BKN012
     FM231500 13007KT P6SM BKN035
     FM240600 14011KT 3SM SHRA OVC040
     FM240800 15010KT 2SM +SHRA OVC025 WS020/17040KT=

USA.gov is the U.S. government's official web portal to all federal, state and local government web resources and services.